Time;durP1;ratioP1;P1;durP2;ratioP2;P2;SDS_P1;SDS_P2;PMS_P1;PMS_P2;Temp;Humidity;BMP_temperature;BMP_pressure;BME280_temperature;BME280_humidity;BME280_pressure;Samples;Min_cycle;Max_cycle;Signal;HPM_P1;HPM_P2
2023/12/10 00:01:33;;;;;;;31.90;15.15;;;;;;;-1.73;77.70;99626.38;4969623;28;20027;-96
2023/12/10 00:04:05;;;;;;;32.72;15.18;;;;;;;-1.78;78.02;99620.03;4969696;28;20058;-95
2023/12/10 00:06:33;;;;;;;32.47;15.23;;;;;;;-1.81;77.96;99615.09;4985171;28;20091;-95
2023/12/10 00:09:02;;;;;;;34.63;14.55;;;;;;;-1.67;77.73;99628.28;4985848;28;20027;-96
2023/12/10 00:11:28;;;;;;;36.25;15.73;;;;;;;-1.72;78.46;99628.03;4969267;28;20051;-96
2023/12/10 00:13:57;;;;;;;35.65;16.50;;;;;;;-1.76;77.79;99610.91;4987283;28;20130;-96
2023/12/10 00:16:28;;;;;;;31.38;15.68;;;;;;;-1.65;77.87;99618.34;4985992;28;20018;-96
2023/12/10 00:19:01;;;;;;;34.45;16.13;;;;;;;-1.63;77.92;99611.06;4986122;28;20030;-96
2023/12/10 00:21:37;;;;;;;29.10;15.68;;;;;;;-1.63;77.77;99607.63;4985298;28;20066;-96
2023/12/10 00:24:05;;;;;;;25.92;13.88;;;;;;;-1.58;77.88;99628.19;4984566;28;20027;-96
2023/12/10 00:26:34;;;;;;;27.65;14.73;;;;;;;-1.51;77.95;99634.38;4985332;28;20038;-96
2023/12/10 00:29:00;;;;;;;31.42;15.35;;;;;;;-1.46;78.04;99632.81;4986227;28;20030;-96
2023/12/10 00:31:31;;;;;;;31.70;14.95;;;;;;;-1.28;78.24;99644.84;4985686;28;20037;-95
2023/12/10 00:33:57;;;;;;;37.92;18.20;;;;;;;-1.25;77.54;99618.03;4984361;28;20035;-96
2023/12/10 00:36:27;;;;;;;29.50;15.32;;;;;;;-1.23;77.41;99611.56;4986231;28;20026;-96
2023/12/10 00:38:55;;;;;;;28.13;15.10;;;;;;;-1.16;76.68;99613.44;4985424;28;20031;-95
2023/12/10 00:41:23;;;;;;;26.80;14.82;;;;;;;-1.06;76.33;99622.75;4985686;28;20037;-95
2023/12/10 00:43:59;;;;;;;27.50;14.50;;;;;;;-1.14;76.23;99619.38;4969163;28;20045;-96
2023/12/10 00:46:25;;;;;;;26.83;14.73;;;;;;;-1.28;77.10;99592.81;4999811;28;20074;-96
2023/12/10 00:48:57;;;;;;;28.95;14.45;;;;;;;-1.19;76.75;99612.00;5001993;28;20046;-95
2023/12/10 00:51:43;;;;;;;29.83;14.45;;;;;;;-1.12;76.37;99583.84;4986787;28;20090;-96
2023/12/10 00:54:09;;;;;;;29.30;15.63;;;;;;;-1.08;76.62;99586.91;4969410;28;20034;-96
2023/12/10 00:56:48;;;;;;;;;;;;;;;;;;;;;
2023/12/10 00:59:17;;;;;;;31.08;14.80;;;;;;;-1.00;75.71;99578.06;4978013;28;20121;-96
2023/12/10 01:01:50;;;;;;;26.75;14.07;;;;;;;-0.83;75.77;99590.00;4986084;28;20089;-96
2023/12/10 01:04:17;;;;;;;23.83;13.07;;;;;;;-0.84;76.12;99581.25;4968147;28;20061;-96
2023/12/10 01:06:42;;;;;;;23.55;13.38;;;;;;;-0.79;75.37;99564.03;4969560;28;20034;-96
2023/12/10 01:09:15;;;;;;;26.25;13.23;;;;;;;-0.83;74.85;99540.63;4985239;28;20057;-96
2023/12/10 01:11:46;;;;;;;24.75;13.98;;;;;;;-0.64;75.57;99568.22;5002604;28;20125;-95
2023/12/10 01:14:15;;;;;;;26.88;13.70;;;;;;;-0.61;75.68;99567.84;5002675;28;20027;-95
2023/12/10 01:16:48;;;;;;;28.02;15.18;;;;;;;-0.45;75.57;99571.22;4970385;28;20045;-95
2023/12/10 01:19:23;;;;;;;24.25;13.52;;;;;;;-0.45;75.00;99550.88;5002128;28;20031;-96
2023/12/10 01:21:51;;;;;;;26.65;14.00;;;;;;;-0.36;74.53;99550.75;4985354;28;20034;-95
2023/12/10 01:24:19;;;;;;;25.85;14.07;;;;;;;-0.35;75.21;99550.56;4987201;28;20034;-95
2023/12/10 01:26:45;;;;;;;30.23;13.68;;;;;;;-0.45;74.89;99520.97;4987215;28;20030;-96
2023/12/10 01:29:15;;;;;;;25.88;14.23;;;;;;;-0.50;74.57;99516.28;4970748;28;20033;-96
2023/12/10 01:31:42;;;;;;;23.35;12.60;;;;;;;-0.45;74.47;99511.22;4987757;28;20469;-95
2023/12/10 01:34:16;;;;;;;27.15;13.43;;;;;;;-0.43;74.68;99511.84;5002703;28;20094;-96
2023/12/10 01:37:07;;;;;;;24.98;13.23;;;;;;;-0.32;73.68;99502.53;4986390;28;20089;-95
2023/12/10 01:39:33;;;;;;;27.70;13.25;;;;;;;-0.11;73.21;99514.06;4968588;28;20035;-96
2023/12/10 01:42:01;;;;;;;25.73;14.02;;;;;;;-0.21;73.57;99486.13;4968933;28;20142;-96
2023/12/10 01:44:28;;;;;;;22.88;12.68;;;;;;;-0.10;72.93;99484.75;4969477;28;20042;-96
2023/12/10 01:47:00;;;;;;;21.85;12.65;;;;;;;0.08;71.92;99505.38;4953289;28;20047;-95
2023/12/10 01:49:28;;;;;;;27.98;12.23;;;;;;;0.16;71.85;99507.88;4969662;28;20031;-96
2023/12/10 01:51:59;;;;;;;23.35;13.30;;;;;;;0.15;71.79;99500.94;4969198;28;20031;-96
2023/12/10 01:54:25;;;;;;;26.95;14.38;;;;;;;0.13;71.83;99495.03;4969656;28;20061;-96
2023/12/10 01:56:52;;;;;;;23.75;12.40;;;;;;;0.08;72.51;99486.84;4969203;28;20440;-96
2023/12/10 01:59:26;;;;;;;26.02;12.60;;;;;;;0.06;71.68;99473.00;4952159;28;20579;-96
2023/12/10 02:01:55;;;;;;;23.48;12.20;;;;;;;0.26;72.07;99485.50;4968565;28;20080;-96
2023/12/10 02:04:21;;;;;;;21.88;11.43;;;;;;;0.28;71.79;99494.06;4968490;28;20043;-95
2023/12/10 02:06:50;;;;;;;19.92;10.18;;;;;;;0.24;71.95;99469.00;4969821;28;20034;-96
2023/12/10 02:09:19;;;;;;;20.15;10.35;;;;;;;0.46;70.79;99474.97;4985300;28;20039;-95
2023/12/10 02:11:47;;;;;;;20.33;10.85;;;;;;;0.32;71.38;99471.47;4986375;28;20030;-96
2023/12/10 02:14:16;;;;;;;20.88;11.35;;;;;;;0.24;72.07;99456.56;4970810;28;20138;-95
2023/12/10 02:16:52;;;;;;;24.23;12.13;;;;;;;0.24;71.83;99466.38;4985549;28;20027;-96
2023/12/10 02:19:21;;;;;;;24.13;11.75;;;;;;;0.15;72.69;99471.84;5001044;28;20039;-95
2023/12/10 02:21:50;;;;;;;23.65;12.30;;;;;;;0.10;73.14;99460.19;4986192;28;20022;-96
2023/12/10 02:24:22;;;;;;;25.45;12.43;;;;;;;0.16;73.21;99468.16;4970478;28;20030;-96
2023/12/10 02:26:49;;;;;;;27.13;12.10;;;;;;;0.06;72.55;99433.28;4986366;28;20023;-96
2023/12/10 02:29:23;;;;;;;23.35;12.45;;;;;;;0.29;73.73;99470.06;4985797;28;20031;-96
2023/12/10 02:31:51;;;;;;;22.02;12.27;;;;;;;0.20;73.07;99442.91;4986305;28;20035;-95
2023/12/10 02:34:26;;;;;;;21.23;11.90;;;;;;;0.09;72.89;99430.25;4970859;28;20140;-95
2023/12/10 02:36:55;;;;;;;23.08;10.85;;;;;;;0.04;73.47;99440.63;4971687;28;20031;-96
2023/12/10 02:39:20;;;;;;;26.48;12.70;;;;;;;0.14;73.59;99459.59;4988349;28;20023;-96
2023/12/10 02:41:49;;;;;;;25.88;11.75;;;;;;;0.07;73.49;99445.53;4989209;28;20029;-96
2023/12/10 02:44:19;;;;;;;23.63;12.52;;;;;;;-0.05;73.89;99437.34;4987264;28;20086;-96
2023/12/10 02:46:50;;;;;;;24.30;12.30;;;;;;;0.10;73.34;99426.59;4967675;28;20034;-96
2023/12/10 02:49:18;;;;;;;22.85;11.38;;;;;;;0.35;72.19;99453.38;4968814;29;20031;-95
2023/12/10 02:51:44;;;;;;;22.30;11.05;;;;;;;0.48;71.67;99464.97;4969748;29;20031;-96
2023/12/10 02:54:12;;;;;;;19.58;10.32;;;;;;;0.35;72.26;99452.53;4969250;29;20034;-96
2023/12/10 02:56:45;;;;;;;20.33;10.32;;;;;;;0.45;71.61;99447.66;4952862;29;20035;-96
2023/12/10 02:59:14;;;;;;;18.75;10.18;;;;;;;0.77;71.45;99474.44;4969429;29;20027;-96
2023/12/10 03:01:43;;;;;;;24.92;10.13;;;;;;;0.68;70.90;99451.78;4967144;29;20059;-95
2023/12/10 03:04:11;;;;;;;18.80;9.95;;;;;;;0.77;70.90;99450.59;4968629;29;20038;-96
2023/12/10 03:06:40;;;;;;;15.80;8.68;;;;;;;0.88;70.62;99451.81;4967553;29;20044;-96
2023/12/10 03:09:08;;;;;;;19.15;10.20;;;;;;;0.74;71.28;99450.97;4967779;28;20032;-96
2023/12/10 03:11:36;;;;;;;19.88;10.05;;;;;;;0.71;71.09;99438.16;4967682;29;20043;-96
2023/12/10 03:14:04;;;;;;;20.88;11.10;;;;;;;0.75;71.48;99442.84;4984058;28;20038;-96
2023/12/10 03:16:32;;;;;;;20.13;11.13;;;;;;;0.64;71.56;99440.75;4950830;29;20102;-96
2023/12/10 03:18:58;;;;;;;22.27;10.90;;;;;;;0.84;71.44;99463.84;4967584;29;20186;-96
2023/12/10 03:21:29;;;;;;;20.65;10.32;;;;;;;0.65;72.39;99444.25;4968926;29;20023;-96
2023/12/10 03:23:57;;;;;;;17.52;9.80;;;;;;;0.86;71.17;99464.44;4984337;28;20042;-96
2023/12/10 03:26:23;;;;;;;18.52;9.02;;;;;;;0.86;70.84;99454.66;4969582;29;20046;-96
2023/12/10 03:28:48;;;;;;;25.67;11.73;;;;;;;0.79;71.49;99446.72;4985714;28;20030;-95
2023/12/10 03:31:34;;;;;;;18.27;10.73;;;;;;;0.74;70.99;99441.19;4970702;29;20042;-96
2023/12/10 03:34:03;;;;;;;18.65;10.90;;;;;;;0.59;72.33;99440.56;4982915;28;20041;-96
2023/12/10 03:36:28;;;;;;;24.02;11.80;;;;;;;0.62;72.27;99453.41;4969600;29;20023;-96
2023/12/10 03:38:57;;;;;;;22.83;11.35;;;;;;;0.50;72.38;99447.91;4968209;29;20569;-96
2023/12/10 03:41:25;;;;;;;22.83;11.13;;;;;;;0.58;72.36;99460.13;4970408;29;20023;-96
2023/12/10 03:43:51;;;;;;;24.73;12.43;;;;;;;0.48;72.47;99441.97;4970089;28;20043;-96
2023/12/10 03:46:22;;;;;;;24.92;12.27;;;;;;;0.55;72.38;99458.69;4954715;28;20027;-96
2023/12/10 03:48:58;;;;;;;22.07;12.37;;;;;;;0.40;73.57;99453.56;4973032;28;20064;-95
2023/12/10 03:51:24;;;;;;;26.85;12.80;;;;;;;0.48;74.40;99473.78;4973257;28;20019;-96
2023/12/10 03:53:51;;;;;;;22.90;11.73;;;;;;;0.37;73.13;99437.25;4973064;28;20026;-95
2023/12/10 03:56:19;;;;;;;27.90;13.98;;;;;;;0.48;73.96;99464.97;4988548;28;20026;-96
2023/12/10 03:58:47;;;;;;;23.83;11.63;;;;;;;0.47;73.38;99458.88;4988286;28;20098;-96
2023/12/10 04:01:20;;;;;;;23.17;12.23;;;;;;;0.59;73.08;99470.53;4972972;28;20030;-96
2023/12/10 04:03:46;;;;;;;21.17;11.55;;;;;;;0.54;73.46;99459.72;4983139;28;20066;-94
2023/12/10 04:06:12;;;;;;;20.25;11.60;;;;;;;0.53;73.00;99449.31;4980277;28;20018;-94
2023/12/10 04:08:38;;;;;;;20.98;11.75;;;;;;;0.44;73.65;99455.84;4980611;28;20465;-96
2023/12/10 04:11:09;;;;;;;18.25;10.35;;;;;;;0.58;73.32;99476.84;4962832;28;20386;-94
2023/12/10 04:13:34;;;;;;;17.95;10.13;;;;;;;0.33;73.21;99451.91;4979769;28;20062;-94
2023/12/10 04:16:00;;;;;;;21.17;11.10;;;;;;;0.40;73.40;99458.88;4981331;28;20354;-96
2023/12/10 04:18:28;;;;;;;21.65;11.35;;;;;;;0.51;74.11;99477.84;4964468;28;20034;-95
2023/12/10 04:20:55;;;;;;;23.92;10.27;;;;;;;0.39;73.94;99465.19;4979407;28;20117;-94
2023/12/10 04:23:23;;;;;;;19.90;10.40;;;;;;;0.54;73.29;99491.50;4980481;28;20479;-94
2023/12/10 04:25:49;;;;;;;17.13;9.73;;;;;;;0.47;73.74;99461.53;4963236;28;20026;-94
2023/12/10 04:28:15;;;;;;;18.02;10.05;;;;;;;0.48;73.57;99464.97;4980018;28;20109;-95
2023/12/10 04:30:41;;;;;;;19.20;9.57;;;;;;;0.36;73.56;99447.03;4964846;28;20049;-95
2023/12/10 04:33:06;;;;;;;18.15;10.68;;;;;;;0.36;74.08;99465.56;4980128;28;20030;-94
2023/12/10 04:35:32;;;;;;;16.52;9.27;;;;;;;0.35;74.10;99441.94;4981041;28;20111;-95
2023/12/10 04:37:58;;;;;;;16.85;9.40;;;;;;;0.39;73.94;99457.25;4980522;28;20026;-94
2023/12/10 04:40:24;;;;;;;18.73;9.57;;;;;;;0.33;73.27;99458.03;4982442;28;20034;-94
2023/12/10 04:42:49;;;;;;;17.77;9.98;;;;;;;0.14;74.24;99443.72;4981486;28;20061;-95
2023/12/10 04:45:18;;;;;;;19.52;9.43;;;;;;;0.06;73.78;99441.22;4965215;28;20022;-95
2023/12/10 04:47:44;;;;;;;17.13;8.82;;;;;;;0.15;74.39;99450.66;4980433;28;20070;-95
2023/12/10 04:50:10;;;;;;;14.18;8.30;;;;;;;0.14;74.35;99445.53;4965276;28;20030;-94
2023/12/10 04:52:38;;;;;;;14.23;7.57;;;;;;;0.50;72.91;99470.91;4963346;28;20327;-95
2023/12/10 04:55:04;;;;;;;15.38;9.40;;;;;;;0.40;73.47;99468.66;4980233;28;20023;-95
2023/12/10 04:57:30;;;;;;;20.25;8.75;;;;;;;0.22;73.71;99444.56;4964346;28;20525;-94
2023/12/10 04:59:56;;;;;;;17.08;9.18;;;;;;;0.24;73.34;99450.47;4963953;28;20057;-94
2023/12/10 05:02:22;;;;;;;14.80;8.18;;;;;;;0.34;73.21;99457.00;4963343;28;20065;-94
2023/12/10 05:04:47;;;;;;;14.20;8.63;;;;;;;0.54;72.33;99488.03;4948999;28;20033;-95
2023/12/10 05:07:13;;;;;;;13.88;7.97;;;;;;;0.52;72.03;99460.91;4947536;28;20115;-94
2023/12/10 05:09:49;;;;;;;14.68;7.93;;;;;;;0.64;70.84;99458.50;4948291;28;20485;-95
2023/12/10 05:12:17;;;;;;;19.08;10.00;;;;;;;0.44;71.88;99447.88;4958214;28;20027;-95
2023/12/10 05:14:44;;;;;;;17.23;9.82;;;;;;;0.37;73.03;99439.91;4956698;28;20126;-95
2023/12/10 05:17:13;;;;;;;15.75;10.13;;;;;;;0.28;72.95;99441.13;4955649;28;20030;-95
2023/12/10 05:26:32;;;;;;;11.63;6.37;;;;;;;0.54;71.18;99457.06;4954765;28;20588;-96
2023/12/10 05:29:06;;;;;;;12.15;7.07;;;;;;;0.55;71.65;99439.34;4974359;28;20038;-96
2023/12/10 05:31:49;;;;;;;11.98;7.20;;;;;;;0.47;71.88;99436.88;4979781;28;20116;-95
2023/12/10 05:34:32;;;;;;;11.73;7.47;;;;;;;0.51;72.50;99446.88;5011961;28;20039;-96
2023/12/10 05:36:58;;;;;;;16.50;7.90;;;;;;;0.46;72.25;99443.19;4978872;28;20030;-94
2023/12/10 05:39:24;;;;;;;14.30;8.07;;;;;;;0.37;72.50;99443.38;4964772;28;20034;-95
2023/12/10 05:41:50;;;;;;;17.88;7.50;;;;;;;0.39;72.33;99440.53;4967075;28;20038;-95
2023/12/10 05:44:19;;;;;;;16.52;8.43;;;;;;;0.28;72.65;99420.75;4950136;28;20496;-94
2023/12/10 05:46:48;;;;;;;15.35;8.15;;;;;;;0.34;72.19;99427.06;4965180;28;20082;-95
2023/12/10 05:49:22;;;;;;;17.52;8.35;;;;;;;0.37;72.71;99422.19;4980216;28;20027;-95
2023/12/10 05:51:48;;;;;;;15.65;7.43;;;;;;;0.25;73.03;99420.31;4980964;28;20524;-95
2023/12/10 05:54:14;;;;;;;12.18;7.75;;;;;;;0.29;72.28;99405.66;4979990;28;20039;-95
2023/12/10 05:56:43;;;;;;;12.02;6.75;;;;;;;0.46;71.69;99419.34;4978731;28;20411;-95
2023/12/10 05:59:09;;;;;;;13.93;7.60;;;;;;;0.57;71.79;99430.16;4983092;28;20441;-94
2023/12/10 06:01:35;;;;;;;13.60;7.75;;;;;;;0.62;71.96;99449.94;4949095;28;20025;-96
2023/12/10 06:04:00;;;;;;;13.52;7.95;;;;;;;0.63;71.50;99438.34;4979588;28;20027;-95
2023/12/10 06:06:27;;;;;;;18.15;8.27;;;;;;;0.55;71.77;99432.19;4980724;28;20026;-95
2023/12/10 06:08:58;;;;;;;19.05;8.32;;;;;;;0.55;72.29;99450.75;4982549;28;20023;-95
2023/12/10 06:11:31;;;;;;;23.77;16.67;;;;;;;0.52;73.07;99440.56;4967474;28;20065;-94
2023/12/10 06:13:57;;;;;;;16.38;9.55;;;;;;;0.55;73.11;99434.03;4951840;28;20027;-94
2023/12/10 06:16:23;;;;;;;15.73;8.65;;;;;;;0.60;72.25;99443.03;4967255;28;20400;-96
2023/12/10 06:18:48;;;;;;;15.68;7.82;;;;;;;0.59;71.99;99429.97;4951171;28;20409;-95
2023/12/10 06:21:14;;;;;;;14.75;8.32;;;;;;;0.74;72.15;99449.13;4983447;28;20451;-95
2023/12/10 06:23:40;;;;;;;13.50;8.05;;;;;;;0.55;71.86;99418.94;4983996;28;20058;-96
2023/12/10 06:26:06;;;;;;;16.00;8.35;;;;;;;0.76;71.75;99448.94;4953978;28;20099;-95
2023/12/10 06:28:32;;;;;;;27.30;10.02;;;;;;;0.57;71.86;99408.97;4953069;28;20022;-95
2023/12/10 06:31:02;;;;;;;16.55;8.50;;;;;;;0.71;72.32;99431.00;4986253;28;20123;-93
2023/12/10 06:33:27;;;;;;;16.05;8.27;;;;;;;0.70;71.83;99431.19;4986497;28;20031;-95
2023/12/10 06:35:53;;;;;;;16.95;8.63;;;;;;;0.65;72.42;99412.47;4986852;28;20042;-94
2023/12/10 06:38:21;;;;;;;13.82;8.10;;;;;;;0.55;72.13;99420.78;4953991;28;20061;-95
2023/12/10 06:40:47;;;;;;;14.57;7.75;;;;;;;0.60;72.20;99405.09;4954521;28;20100;-95
2023/12/10 06:43:13;;;;;;;13.73;8.20;;;;;;;0.61;71.77;99406.75;4986367;28;20106;-95
2023/12/10 06:45:39;;;;;;;14.18;8.13;;;;;;;0.65;71.42;99407.16;4953185;28;20103;-95
2023/12/10 06:48:06;;;;;;;14.43;8.32;;;;;;;0.69;72.07;99425.09;4969120;28;20051;-95
2023/12/10 06:50:32;;;;;;;16.23;8.50;;;;;;;0.75;71.77;99434.88;4935564;29;20031;-95
2023/12/10 06:52:57;;;;;;;14.55;8.18;;;;;;;0.85;71.91;99436.31;4948753;29;20573;-95
2023/12/10 06:55:25;;;;;;;17.10;8.77;;;;;;;0.86;71.22;99440.59;4948474;29;20028;-95
2023/12/10 06:57:51;;;;;;;17.98;9.65;;;;;;;0.63;71.91;99430.38;4948261;29;20034;-95
2023/12/10 07:00:19;;;;;;;16.25;8.10;;;;;;;0.59;71.74;99430.78;4950139;29;20034;-95
2023/12/10 07:02:49;;;;;;;15.75;8.60;;;;;;;0.59;72.27;99446.69;4944643;29;20032;-95
2023/12/10 07:05:17;;;;;;;12.98;7.47;;;;;;;0.69;72.76;99453.44;4972340;28;20028;-94
2023/12/10 07:07:46;;;;;;;15.68;8.50;;;;;;;0.89;71.15;99450.78;4951460;29;20020;-96
2023/12/10 07:10:11;;;;;;;21.83;8.98;;;;;;;0.85;71.61;99453.03;4935177;29;20055;-94
2023/12/10 07:12:37;;;;;;;16.48;8.27;;;;;;;0.79;71.48;99459.97;4943197;29;20102;-95
2023/12/10 07:15:03;;;;;;;16.52;8.35;;;;;;;0.69;71.28;99443.63;4943961;29;20589;-93
2023/12/10 07:17:29;;;;;;;14.57;8.35;;;;;;;0.72;71.66;99440.56;4944162;29;20031;-96
2023/12/10 07:19:54;;;;;;;16.77;9.32;;;;;;;1.01;70.90;99452.59;4944397;28;20118;-93
2023/12/10 07:22:21;;;;;;;23.88;9.82;;;;;;;0.93;70.50;99452.81;4944328;28;20478;-94
2023/12/10 07:24:46;;;;;;;17.85;9.00;;;;;;;0.79;71.27;99462.63;4944320;28;20486;-93
2023/12/10 07:27:12;;;;;;;15.70;8.20;;;;;;;0.89;70.84;99470.16;4943115;29;20158;-93
2023/12/10 07:29:38;;;;;;;16.63;8.63;;;;;;;1.06;70.06;99456.50;4943642;28;20023;-93
2023/12/10 07:32:03;;;;;;;14.93;9.18;;;;;;;1.08;69.50;99470.34;4944403;29;20099;-93
2023/12/10 07:34:29;;;;;;;14.50;8.55;;;;;;;1.27;69.33;99480.16;4959819;28;20490;-94
2023/12/10 07:36:55;;;;;;;15.77;9.32;;;;;;;1.22;69.48;99479.94;4943400;29;20629;-93
2023/12/10 07:39:23;;;;;;;21.85;10.27;;;;;;;1.18;69.56;99468.13;4942575;28;20102;-92
2023/12/10 07:41:48;;;;;;;24.23;11.93;;;;;;;1.23;69.54;99480.78;4927975;29;20027;-94
2023/12/10 07:44:14;;;;;;;38.35;15.30;;;;;;;1.34;69.21;99488.09;4943545;29;20123;-93
2023/12/10 07:46:40;;;;;;;34.90;15.85;;;;;;;1.27;69.06;99480.16;4942668;29;20061;-93
2023/12/10 07:49:05;;;;;;;22.40;11.10;;;;;;;1.47;68.51;99474.00;4928260;29;20441;-95
2023/12/10 07:51:31;;;;;;;20.55;10.52;;;;;;;1.36;69.03;99486.88;4928160;29;20057;-93
2023/12/10 07:53:56;;;;;;;16.80;8.88;;;;;;;1.35;68.84;99481.75;4926540;29;20087;-93
2023/12/10 07:56:22;;;;;;;15.85;9.07;;;;;;;1.41;69.64;99483.59;4927021;29;20049;-94
2023/12/10 07:58:48;;;;;;;17.15;9.13;;;;;;;1.50;68.95;99486.88;4927389;29;20099;-95
2023/12/10 08:01:13;;;;;;;17.15;9.40;;;;;;;1.47;68.52;99484.63;4927121;29;20050;-94
2023/12/10 08:03:39;;;;;;;17.48;9.18;;;;;;;1.56;68.75;99475.44;4927884;29;20038;-94
2023/12/10 08:06:20;;;;;;;18.98;9.82;;;;;;;1.60;68.60;99490.72;4931226;29;20059;-95
2023/12/10 08:08:46;;;;;;;21.45;9.63;;;;;;;1.57;69.30;99485.00;4933650;29;20062;-96
2023/12/10 08:11:11;;;;;;;19.95;10.43;;;;;;;1.47;69.28;99490.72;4930733;29;20023;-95
2023/12/10 08:13:40;;;;;;;19.70;10.10;;;;;;;1.73;68.62;99505.00;4931009;29;20091;-95
2023/12/10 08:16:06;;;;;;;21.67;10.20;;;;;;;1.77;68.92;99522.97;4934091;29;20078;-96
2023/12/10 08:18:35;;;;;;;23.15;11.50;;;;;;;1.92;67.88;99509.44;4918835;29;20035;-96
2023/12/10 08:21:08;;;;;;;22.77;12.73;;;;;;;1.99;67.11;99510.25;4933126;29;20067;-94
2023/12/10 08:23:56;;;;;;;22.23;13.18;;;;;;;2.12;67.21;99503.25;4917482;29;20030;-95
2023/12/10 08:26:22;;;;;;;21.92;11.65;;;;;;;1.95;67.73;99497.56;4950883;29;20050;-95
2023/12/10 08:28:51;;;;;;;20.33;10.93;;;;;;;1.84;68.47;99498.22;4931202;29;20359;-96
2023/12/10 08:32:07;;;;;;;;;;;;;;;;;;;;;
2023/12/10 08:35:05;;;;;;;21.45;11.30;;;;;;;1.84;68.99;99495.56;4910758;29;20063;-95
2023/12/10 08:45:08;;;;;;;19.42;9.77;;;;;;;2.08;68.43;99523.31;4906423;29;20048;-95
2023/12/10 08:47:40;;;;;;;33.05;13.75;;;;;;;2.05;68.14;99482.03;4901738;29;20055;-96
2023/12/10 08:50:06;;;;;;;21.77;11.33;;;;;;;1.92;68.52;99490.84;4938398;28;20101;-95
2023/12/10 08:52:32;;;;;;;22.20;10.00;;;;;;;2.13;67.83;99515.50;4980399;28;20282;-94
2023/12/10 08:55:01;;;;;;;33.38;11.35;;;;;;;1.90;68.72;99490.25;4964286;28;20481;-96
2023/12/10 08:57:26;;;;;;;24.70;12.45;;;;;;;1.96;68.60;99494.72;4964485;28;20037;-94
2023/12/10 08:59:52;;;;;;;21.83;11.68;;;;;;;1.96;67.75;99486.75;4980397;28;20117;-95
2023/12/10 09:02:19;;;;;;;27.90;14.50;;;;;;;1.99;68.13;99488.16;4965711;28;20027;-96
2023/12/10 09:04:47;;;;;;;24.45;13.30;;;;;;;2.13;67.17;99499.56;5157005;23;20048;-95
2023/12/10 09:07:14;;;;;;;26.88;14.27;;;;;;;2.21;66.85;99484.22;4891086;29;20032;-96
2023/12/10 09:09:41;;;;;;;26.98;14.50;;;;;;;2.26;66.85;99477.44;4906766;29;20042;-95
2023/12/10 09:12:06;;;;;;;35.22;16.30;;;;;;;2.27;67.15;99468.47;4906433;29;20032;-95
2023/12/10 09:14:39;;;;;;;29.48;15.02;;;;;;;2.37;68.03;99487.41;4922616;29;20202;-95
2023/12/10 09:17:31;;;;;;;35.55;14.25;;;;;;;2.25;67.98;99459.88;4911093;29;20123;-96
2023/12/10 09:20:18;;;;;;;29.02;14.25;;;;;;;2.47;67.89;99463.88;4901324;29;20044;-96
2023/12/10 09:22:43;;;;;;;23.50;12.80;;;;;;;2.70;67.25;99486.41;4936490;29;20028;-96
2023/12/10 09:25:09;;;;;;;25.50;12.13;;;;;;;2.70;66.75;99459.81;4905493;29;20111;-96
2023/12/10 09:28:11;;;;;;;21.50;11.40;;;;;;;2.82;66.77;99458.94;4921668;29;20080;-96
2023/12/10 09:31:23;;;;;;;26.08;12.80;;;;;;;2.48;67.70;99419.50;4939267;29;20030;-95
2023/12/10 09:33:52;;;;;;;22.48;11.75;;;;;;;2.48;67.00;99438.91;4936397;29;20051;-96
2023/12/10 09:36:43;;;;;;;21.40;12.45;;;;;;;2.51;66.52;99422.53;4918217;29;20040;-95
2023/12/10 09:39:10;;;;;;;28.02;14.50;;;;;;;2.45;66.73;99422.56;4935272;29;20055;-95
2023/12/10 09:41:46;;;;;;;30.40;15.05;;;;;;;2.69;66.24;99426.31;4900831;29;20036;-96
2023/12/10 09:44:24;;;;;;;28.58;14.68;;;;;;;2.48;67.22;99417.66;4923163;29;20024;-96
2023/12/10 09:47:02;;;;;;;26.10;14.00;;;;;;;2.75;65.53;99406.81;4905460;29;20046;-96
2023/12/10 09:49:37;;;;;;;28.30;15.00;;;;;;;2.91;66.28;99437.41;4905814;29;20029;-96
2023/12/10 09:52:05;;;;;;;27.85;13.68;;;;;;;2.68;66.87;99406.06;4889984;29;20032;-94
2023/12/10 09:54:31;;;;;;;33.95;20.13;;;;;;;2.92;65.76;99410.56;4912136;29;20064;-94
2023/12/10 09:56:59;;;;;;;31.55;15.95;;;;;;;3.06;65.84;99427.22;4881986;29;20058;-94
2023/12/10 09:59:27;;;;;;;23.13;13.35;;;;;;;2.92;66.42;99425.72;4899641;29;20044;-94
2023/12/10 10:01:54;;;;;;;28.00;14.50;;;;;;;2.80;66.86;99415.78;4913951;29;20042;-95
2023/12/10 10:04:27;;;;;;;25.23;14.23;;;;;;;2.89;66.33;99396.91;4896777;29;20186;-95
2023/12/10 10:06:55;;;;;;;26.98;13.93;;;;;;;3.08;66.26;99405.75;4881188;29;20045;-95
2023/12/10 10:09:26;;;;;;;28.10;15.75;;;;;;;3.35;65.50;99423.06;4899259;29;20040;-94
2023/12/10 10:11:53;;;;;;;22.03;11.83;;;;;;;3.24;66.07;99408.66;4916411;29;20031;-95
2023/12/10 10:14:26;;;;;;;21.90;11.15;;;;;;;3.46;65.04;99410.88;4898821;29;20036;-94
2023/12/10 10:17:00;;;;;;;22.58;12.00;;;;;;;3.50;64.14;99403.28;4886807;29;20032;-95
2023/12/10 10:19:28;;;;;;;28.88;13.02;;;;;;;3.59;65.21;99404.59;4930639;29;20055;-96
2023/12/10 10:21:59;;;;;;;24.88;13.00;;;;;;;3.40;64.61;99385.16;4914164;29;20046;-95
2023/12/10 10:24:26;;;;;;;28.00;14.68;;;;;;;3.59;64.06;99385.97;4898392;29;20071;-94
2023/12/10 10:26:54;;;;;;;22.88;14.43;;;;;;;3.41;64.51;99384.94;4882534;29;20040;-95
2023/12/10 10:29:22;;;;;;;27.85;14.02;;;;;;;3.48;64.02;99374.22;4896842;29;20039;-96
2023/12/10 10:31:54;;;;;;;23.00;12.77;;;;;;;3.46;64.60;99386.94;4882631;29;20044;-95
2023/12/10 10:34:20;;;;;;;23.10;12.88;;;;;;;3.43;64.46;99366.09;4883460;29;20078;-95
2023/12/10 10:37:01;;;;;;;23.80;12.95;;;;;;;3.53;64.88;99368.22;4881371;29;20028;-95
2023/12/10 10:39:30;;;;;;;22.83;12.75;;;;;;;3.33;64.85;99355.94;4915922;29;20032;-96
2023/12/10 10:41:59;;;;;;;25.38;13.98;;;;;;;3.50;65.43;99372.13;4901828;29;20040;-95
2023/12/10 10:44:31;;;;;;;28.38;15.13;;;;;;;3.54;65.28;99354.69;4902103;29;20079;-95
2023/12/10 10:46:57;;;;;;;;;;;;;;;3.79;64.69;99381.22;4902658;29;20048;-94
2023/12/10 10:49:29;;;;;;;28.90;14.75;;;;;;;3.61;64.86;99335.97;4902108;29;19911;-94
2023/12/10 10:51:59;;;;;;;24.23;14.50;;;;;;;3.89;64.32;99382.56;4902078;29;20032;-96
2023/12/10 10:54:28;;;;;;;25.45;13.55;;;;;;;3.69;65.50;99359.63;4900250;29;20028;-95
2023/12/10 10:56:54;;;;;;;20.52;12.85;;;;;;;3.59;65.12;99362.84;4884541;29;20027;-96
2023/12/10 10:59:32;;;;;;;35.33;16.77;;;;;;;3.75;65.49;99381.88;4874371;29;20035;-92
2023/12/10 11:02:09;;;;;;;22.52;13.35;;;;;;;3.83;64.71;99361.09;4887800;29;20033;-92
2023/12/10 11:04:41;;;;;;;25.05;13.60;;;;;;;3.72;66.30;99348.53;4891541;29;20114;-95
2023/12/10 11:07:31;;;;;;;;;;;;;;;;;;;;;
2023/12/10 11:09:58;;;;;;;28.38;14.20;;;;;;;3.88;64.84;99363.09;4968242;29;20063;-96
2023/12/10 11:12:44;;;;;;;26.55;14.30;;;;;;;3.82;65.01;99366.66;4930811;29;20102;-95
2023/12/10 11:15:22;;;;;;;25.67;13.95;;;;;;;3.77;65.21;99366.50;4965209;29;20051;-96
2023/12/10 11:18:09;;;;;;;26.85;14.40;;;;;;;3.68;66.29;99357.22;4930926;29;20455;-95
2023/12/10 11:20:47;;;;;;;24.25;13.00;;;;;;;3.38;67.04;99347.28;4932763;29;20382;-95
2023/12/10 11:23:14;;;;;;;21.33;12.15;;;;;;;3.20;67.60;99337.47;4948464;29;20486;-95
2023/12/10 11:25:41;;;;;;;24.67;13.60;;;;;;;3.30;66.80;99332.47;4945779;29;20040;-95
2023/12/10 11:28:10;;;;;;;24.42;13.05;;;;;;;3.58;67.60;99371.84;4947834;29;20031;-96
2023/12/10 11:30:40;;;;;;;31.05;14.15;;;;;;;3.40;67.46;99342.56;4948783;29;20032;-94
2023/12/10 11:33:15;;;;;;;25.83;14.68;;;;;;;3.43;67.01;99361.56;4946712;29;20079;-95
2023/12/10 11:35:43;;;;;;;26.05;13.88;;;;;;;3.16;66.87;99353.06;4936029;29;20499;-94
2023/12/10 11:38:11;;;;;;;30.38;14.65;;;;;;;2.93;67.85;99359.03;4966102;29;20055;-95
2023/12/10 11:40:37;;;;;;;25.92;15.25;;;;;;;2.58;68.58;99346.22;4916794;29;20063;-95
2023/12/10 11:43:06;;;;;;;23.58;14.25;;;;;;;2.47;69.50;99373.50;4904394;29;20130;-95
2023/12/10 11:45:45;;;;;;;27.42;14.50;;;;;;;2.26;70.03;99353.41;4952840;29;20027;-96
2023/12/10 11:48:25;;;;;;;;;;;;;;;;;;;;;
2023/12/10 11:50:51;;;;;;;33.67;16.90;;;;;;;2.27;70.25;99359.53;4973631;28;20051;-96
2023/12/10 11:53:33;;;;;;;26.13;15.73;;;;;;;2.22;71.04;99360.16;4941831;29;20035;-96
2023/12/10 11:56:01;;;;;;;26.17;14.43;;;;;;;2.04;71.22;99330.88;4946399;29;20064;-96
2023/12/10 11:58:27;;;;;;;29.05;15.63;;;;;;;1.95;71.77;99330.28;4930176;29;20042;-95